createdAt,value
2023-01-26T00:01:57.399Z,3.99
2023-01-26T00:04:25.129Z,3.97
2023-01-26T00:06:52.233Z,3.96
2023-01-26T00:09:19.078Z,3.95
2023-01-26T00:11:46.537Z,3.97
2023-01-26T00:14:13.622Z,3.96
2023-01-26T00:16:40.845Z,3.99
2023-01-26T00:19:08.872Z,4.00
2023-01-26T00:21:35.961Z,3.98
2023-01-26T00:24:04.962Z,3.98
2023-01-26T00:26:32.474Z,3.97
2023-01-26T00:29:01.388Z,3.97
2023-01-26T00:31:28.360Z,3.90
2023-01-26T00:33:56.778Z,3.92
2023-01-26T00:36:24.016Z,3.94
2023-01-26T00:38:51.209Z,3.96
2023-01-26T00:41:37.115Z,3.93
2023-01-26T00:44:04.250Z,3.95
2023-01-26T00:46:31.724Z,3.95
2023-01-26T00:49:00.663Z,3.96
2023-01-26T00:51:27.980Z,3.96
2023-01-26T00:53:55.578Z,3.98
2023-01-26T00:56:22.345Z,3.98
2023-01-26T00:58:49.525Z,4.01
2023-01-26T01:01:16.654Z,3.98
2023-01-26T01:03:43.835Z,3.94
2023-01-26T01:06:10.679Z,3.95
2023-01-26T01:08:38.231Z,3.96
2023-01-26T01:11:07.646Z,3.97
2023-01-26T01:13:34.542Z,3.96
2023-01-26T01:16:05.720Z,3.95
2023-01-26T01:18:33.170Z,3.93
2023-01-26T01:21:00.310Z,3.95
2023-01-26T01:23:30.244Z,3.92
2023-01-26T01:25:58.913Z,3.96
2023-01-26T01:28:26.546Z,4.00
2023-01-26T01:30:53.654Z,3.93
2023-01-26T01:33:23.168Z,3.97
2023-01-26T01:36:11.138Z,3.97
2023-01-26T01:38:38.432Z,3.94
2023-01-26T01:41:05.685Z,3.91
2023-01-26T01:43:32.982Z,3.92
2023-01-26T01:46:01.642Z,3.90
2023-01-26T01:48:39.003Z,3.90
2023-01-26T01:51:15.176Z,3.93
2023-01-26T01:53:46.262Z,3.95
2023-01-26T01:56:21.574Z,3.94
2023-01-26T01:58:55.159Z,3.93
2023-01-26T02:01:21.969Z,3.91
2023-01-26T02:03:52.602Z,3.88
2023-01-26T02:06:26.886Z,3.88
2023-01-26T02:08:56.182Z,3.88
2023-01-26T02:11:38.856Z,3.91
2023-01-26T02:14:09.724Z,3.92
2023-01-26T02:16:40.132Z,3.93
2023-01-26T02:19:37.799Z,3.97
2023-01-26T02:22:17.180Z,4.02
2023-01-26T02:24:44.653Z,3.99
2023-01-26T02:27:12.109Z,4.00
2023-01-26T02:29:39.083Z,3.97
2023-01-26T02:32:06.481Z,3.99
2023-01-26T02:34:33.675Z,3.97
2023-01-26T02:37:01.776Z,3.96
2023-01-26T02:39:43.999Z,3.98
2023-01-26T02:42:30.248Z,3.99
2023-01-26T02:44:57.446Z,3.99
2023-01-26T02:47:24.867Z,4.00
2023-01-26T02:49:51.709Z,4.00
2023-01-26T02:52:26.268Z,4.00
2023-01-26T02:55:13.315Z,4.00
2023-01-26T02:57:41.649Z,3.99
2023-01-26T03:00:14.384Z,4.00
2023-01-26T03:02:42.234Z,3.99
2023-01-26T03:05:09.774Z,4.01
2023-01-26T03:07:36.954Z,3.96
2023-01-26T03:10:05.344Z,3.99
2023-01-26T03:12:32.852Z,3.97
2023-01-26T03:15:18.483Z,3.94
2023-01-26T03:17:45.588Z,3.97
2023-01-26T03:20:31.506Z,3.98
2023-01-26T03:23:17.905Z,3.96
2023-01-26T03:26:03.394Z,3.95
2023-01-26T03:28:30.502Z,3.98
2023-01-26T03:30:58.453Z,3.96
2023-01-26T03:33:25.899Z,3.99
2023-01-26T03:35:54.681Z,3.96
2023-01-26T03:38:21.940Z,3.98
2023-01-26T03:41:07.331Z,3.97
2023-01-26T03:43:53.280Z,3.96
2023-01-26T03:46:38.486Z,3.97
2023-01-26T03:49:24.630Z,3.98
2023-01-26T03:52:10.139Z,3.98
2023-01-26T03:54:55.576Z,4.01
2023-01-26T03:57:22.693Z,3.99
2023-01-26T03:59:50.141Z,4.01
2023-01-26T04:02:35.527Z,3.98
2023-01-26T04:05:21.942Z,3.96
2023-01-26T04:08:07.213Z,3.95
2023-01-26T04:10:34.653Z,3.97
2023-01-26T04:13:20.228Z,3.95
2023-01-26T04:16:08.673Z,3.95
2023-01-26T04:18:54.186Z,3.99
2023-01-26T04:21:50.178Z,3.97
2023-01-26T04:24:17.655Z,3.98
2023-01-26T04:26:45.172Z,3.97
2023-01-26T04:29:14.500Z,3.97
2023-01-26T04:31:42.510Z,3.97
2023-01-26T04:34:14.697Z,3.97
2023-01-26T04:36:42.762Z,3.97
2023-01-26T04:39:10.691Z,3.98
2023-01-26T04:41:37.834Z,3.92
2023-01-26T04:44:04.783Z,3.96
2023-01-26T04:46:33.669Z,3.98
2023-01-26T04:49:01.139Z,3.97
2023-01-26T04:51:28.397Z,3.94
2023-01-26T04:53:56.440Z,3.95
2023-01-26T04:56:29.084Z,3.93
2023-01-26T04:58:59.117Z,3.93
2023-01-26T05:01:26.350Z,3.90
2023-01-26T05:03:53.255Z,3.92
2023-01-26T05:06:21.281Z,3.94
2023-01-26T05:08:48.137Z,3.92
2023-01-26T05:11:15.587Z,3.90
2023-01-26T05:13:42.442Z,3.90
2023-01-26T05:16:09.680Z,3.90
2023-01-26T05:18:36.894Z,3.91
2023-01-26T05:21:03.792Z,3.96
2023-01-26T05:23:31.236Z,3.93
2023-01-26T05:25:58.084Z,3.96
2023-01-26T05:28:24.994Z,3.92
2023-01-26T05:30:52.476Z,3.90
2023-01-26T05:33:22.751Z,3.86
2023-01-26T05:35:50.234Z,3.87
2023-01-26T05:38:17.776Z,3.87
2023-01-26T05:40:45.266Z,3.87
2023-01-26T05:43:13.485Z,3.87
2023-01-26T05:45:41.161Z,3.83
2023-01-26T05:48:07.974Z,3.81
2023-01-26T05:50:34.746Z,3.81
2023-01-26T05:53:03.439Z,3.80
2023-01-26T05:55:30.311Z,3.77
2023-01-26T05:57:57.404Z,3.76
2023-01-26T06:00:25.146Z,3.74
2023-01-26T06:02:52.296Z,3.72
2023-01-26T06:05:19.134Z,3.70
2023-01-26T06:07:46.544Z,3.74
2023-01-26T06:10:13.566Z,3.72
2023-01-26T06:12:43.287Z,3.73
2023-01-26T06:15:12.728Z,3.75
2023-01-26T06:17:40.437Z,3.76
2023-01-26T06:20:08.140Z,3.76
2023-01-26T06:22:35.864Z,3.77
2023-01-26T06:25:03.416Z,3.75
2023-01-26T06:27:30.519Z,3.76
2023-01-26T06:29:57.594Z,3.72
2023-01-26T06:32:25.876Z,3.72
2023-01-26T06:34:53.979Z,3.68
2023-01-26T06:37:21.190Z,3.67
2023-01-26T06:39:48.651Z,3.66
2023-01-26T06:42:16.165Z,3.66
2023-01-26T06:44:42.945Z,3.65
2023-01-26T06:47:10.155Z,3.64
2023-01-26T06:49:37.607Z,3.65
2023-01-26T06:52:21.416Z,3.65
2023-01-26T06:54:50.918Z,3.65
2023-01-26T06:57:18.069Z,3.65
2023-01-26T06:59:44.850Z,3.65
2023-01-26T07:02:21.244Z,3.66
2023-01-26T07:04:49.514Z,3.66
2023-01-26T07:07:16.937Z,3.62
2023-01-26T07:09:43.808Z,3.59
2023-01-26T07:12:10.928Z,3.60
2023-01-26T07:14:38.107Z,3.56
2023-01-26T07:17:04.919Z,3.59
2023-01-26T07:19:33.607Z,3.59
2023-01-26T07:22:01.891Z,3.61
2023-01-26T07:24:29.427Z,3.62
2023-01-26T07:26:57.317Z,3.60
2023-01-26T07:29:24.433Z,3.60
2023-01-26T07:31:51.968Z,3.62
2023-01-26T07:34:18.804Z,3.63
2023-01-26T07:36:46.228Z,3.66
2023-01-26T07:39:12.995Z,3.67
2023-01-26T07:41:40.393Z,3.71
2023-01-26T07:44:10.538Z,3.71
2023-01-26T07:46:37.742Z,3.74
2023-01-26T07:49:04.890Z,3.78
2023-01-26T07:51:32.006Z,3.83
2023-01-26T07:53:59.417Z,3.83
2023-01-26T07:56:26.258Z,3.86
2023-01-26T07:58:54.927Z,3.84
2023-01-26T08:01:23.148Z,3.85
2023-01-26T08:03:52.300Z,3.86
2023-01-26T08:06:20.746Z,3.86
2023-01-26T08:08:51.553Z,3.86
2023-01-26T08:11:19.732Z,3.90
2023-01-26T08:13:46.812Z,3.92
2023-01-26T08:16:14.028Z,3.93
2023-01-26T08:18:46.141Z,3.94
2023-01-26T08:21:15.179Z,3.93
2023-01-26T08:23:42.694Z,3.94
2023-01-26T08:26:12.877Z,3.95
2023-01-26T08:28:41.225Z,3.97
2023-01-26T08:31:17.941Z,3.98
2023-01-26T08:33:45.173Z,3.99
2023-01-26T08:36:14.239Z,3.99
2023-01-26T08:38:42.198Z,4.01
2023-01-26T08:41:09.764Z,4.01
2023-01-26T08:43:37.345Z,4.03
2023-01-26T08:46:05.048Z,4.06
2023-01-26T08:48:32.348Z,4.08
2023-01-26T08:51:01.858Z,4.07
2023-01-26T08:53:33.893Z,4.06
2023-01-26T08:56:10.431Z,4.07
2023-01-26T08:58:38.347Z,4.11
2023-01-26T09:01:12.330Z,4.15
2023-01-26T09:03:39.852Z,4.16
2023-01-26T09:06:08.758Z,4.14
2023-01-26T09:08:36.692Z,4.13
2023-01-26T09:11:06.774Z,4.17
2023-01-26T09:13:34.080Z,4.19
2023-01-26T09:16:05.021Z,4.20
2023-01-26T09:18:32.138Z,4.23
2023-01-26T09:21:06.757Z,4.24
2023-01-26T09:23:34.475Z,4.25
2023-01-26T09:26:03.183Z,4.24
2023-01-26T09:28:30.203Z,4.26
2023-01-26T09:30:57.408Z,4.25
2023-01-26T09:33:25.773Z,4.27
2023-01-26T09:35:52.547Z,4.28
2023-01-26T09:38:19.666Z,4.31
2023-01-26T09:41:11.209Z,4.31
2023-01-26T09:43:43.810Z,4.34
2023-01-26T09:46:22.029Z,4.38
2023-01-26T09:49:01.414Z,4.39
2023-01-26T09:51:48.928Z,4.42
2023-01-26T09:54:35.896Z,4.43
2023-01-26T09:57:20.921Z,4.42
2023-01-26T10:00:00.331Z,4.47
2023-01-26T10:02:58.344Z,4.48
2023-01-26T10:05:40.761Z,4.51
2023-01-26T10:08:17.221Z,4.54
2023-01-26T10:10:58.363Z,4.55
2023-01-26T10:13:26.602Z,4.56
2023-01-26T10:16:08.314Z,4.55
2023-01-26T10:18:45.017Z,4.57
2023-01-26T10:21:12.733Z,4.59
2023-01-26T10:23:48.422Z,4.59
2023-01-26T10:26:17.844Z,4.61
2023-01-26T10:28:48.398Z,4.62
2023-01-26T10:31:22.296Z,4.64
2023-01-26T10:34:03.379Z,4.66
2023-01-26T10:36:32.186Z,4.67
2023-01-26T10:39:11.061Z,4.68
2023-01-26T10:41:39.218Z,4.70
2023-01-26T10:44:15.937Z,4.70
2023-01-26T10:46:43.046Z,4.71
2023-01-26T10:49:10.143Z,4.72
2023-01-26T10:51:39.548Z,4.73
2023-01-26T10:54:27.437Z,4.74
2023-01-26T10:57:15.011Z,4.74
2023-01-26T10:59:50.212Z,4.77
2023-01-26T11:02:20.256Z,4.76
2023-01-26T11:05:13.533Z,4.77
2023-01-26T11:07:46.783Z,4.78
2023-01-26T11:10:28.941Z,4.78
2023-01-26T11:13:07.808Z,4.78
2023-01-26T11:15:40.955Z,4.78
2023-01-26T11:18:26.637Z,4.79
2023-01-26T11:21:39.598Z,4.81
2023-01-26T11:24:44.928Z,4.82
2023-01-26T11:27:30.048Z,4.83
2023-01-26T11:30:19.112Z,4.86
2023-01-26T11:33:01.019Z,4.87
2023-01-26T11:35:52.311Z,4.87
2023-01-26T11:38:39.335Z,4.89
2023-01-26T11:41:16.186Z,4.90
2023-01-26T11:44:18.001Z,4.92
2023-01-26T11:47:06.487Z,4.93
2023-01-26T11:49:39.100Z,4.93
2023-01-26T11:52:24.827Z,4.93
2023-01-26T11:55:00.467Z,4.96
2023-01-26T11:57:49.154Z,4.97
2023-01-26T12:00:44.123Z,4.99
2023-01-26T12:03:23.446Z,5.00
2023-01-26T12:05:54.297Z,5.03
2023-01-26T12:08:31.048Z,5.04
2023-01-26T12:11:25.692Z,5.04
2023-01-26T12:14:23.399Z,5.05
2023-01-26T12:17:18.629Z,5.08
2023-01-26T12:20:04.997Z,5.07
2023-01-26T12:22:43.137Z,5.11
2023-01-26T12:25:36.263Z,5.11
2023-01-26T12:28:21.673Z,5.12
2023-01-26T12:30:56.328Z,5.13
2023-01-26T12:33:24.494Z,5.14
2023-01-26T12:36:12.916Z,5.15
2023-01-26T12:39:25.072Z,5.17
2023-01-26T12:42:00.953Z,5.18
2023-01-26T12:44:31.486Z,5.19
2023-01-26T12:47:08.715Z,5.21
2023-01-26T12:49:40.910Z,5.23
2023-01-26T12:52:18.523Z,5.23
2023-01-26T12:54:55.835Z,5.23
2023-01-26T12:57:31.270Z,5.25
2023-01-26T13:00:18.235Z,5.27
2023-01-26T13:02:54.461Z,5.27
2023-01-26T13:05:30.227Z,5.27
2023-01-26T13:07:58.156Z,5.27
2023-01-26T13:10:28.375Z,5.27
2023-01-26T13:13:21.445Z,5.28
2023-01-26T13:16:17.802Z,5.29
2023-01-26T13:18:50.329Z,5.28
2023-01-26T13:21:47.192Z,5.27
2023-01-26T13:24:17.016Z,5.26
2023-01-26T13:26:49.732Z,5.27
2023-01-26T13:29:25.818Z,5.26
2023-01-26T13:31:56.820Z,5.26
2023-01-26T13:34:32.617Z,5.26
2023-01-26T13:37:09.345Z,5.25
2023-01-26T13:39:38.645Z,5.23
2023-01-26T13:42:24.154Z,5.23
2023-01-26T13:45:03.151Z,5.23
2023-01-26T13:47:38.380Z,5.22
2023-01-26T13:50:37.949Z,5.20
2023-01-26T13:53:30.017Z,5.20
2023-01-26T13:55:59.977Z,5.21
2023-01-26T13:58:27.958Z,5.21
2023-01-26T14:01:07.431Z,5.20
2023-01-26T14:03:35.175Z,5.19
2023-01-26T14:06:09.736Z,5.19
2023-01-26T14:08:38.875Z,5.20
2023-01-26T14:11:18.117Z,5.19
2023-01-26T14:13:50.463Z,5.18
2023-01-26T14:16:28.300Z,5.18
2023-01-26T14:19:14.945Z,5.16
2023-01-26T14:21:57.309Z,5.18
2023-01-26T14:24:26.259Z,5.16
2023-01-26T14:26:53.924Z,5.12
2023-01-26T14:29:26.959Z,5.14
2023-01-26T14:31:57.110Z,5.12
2023-01-26T14:34:30.270Z,5.17
2023-01-26T14:37:15.841Z,5.16
2023-01-26T14:39:45.796Z,5.08
2023-01-26T14:42:15.964Z,5.08
2023-01-26T14:44:43.528Z,5.08
2023-01-26T14:47:26.728Z,5.04
2023-01-26T14:50:04.645Z,5.07
2023-01-26T14:52:38.994Z,5.07
2023-01-26T14:55:18.964Z,5.06
2023-01-26T14:57:46.627Z,5.02
2023-01-26T15:00:26.192Z,5.06
2023-01-26T15:02:56.905Z,5.08
2023-01-26T15:05:32.961Z,5.04
2023-01-26T15:08:02.898Z,4.99
2023-01-26T15:10:44.045Z,4.97
2023-01-26T15:13:11.808Z,5.01
2023-01-26T15:15:41.644Z,5.02
2023-01-26T15:18:14.191Z,5.04
2023-01-26T15:21:00.845Z,5.02
2023-01-26T15:23:42.223Z,5.00
2023-01-26T15:26:09.756Z,5.00
2023-01-26T15:28:38.725Z,4.99
2023-01-26T15:31:06.829Z,4.96
2023-01-26T15:33:50.085Z,4.93
2023-01-26T15:36:27.757Z,4.93
2023-01-26T15:39:13.245Z,4.84
2023-01-26T15:41:42.328Z,4.80
2023-01-26T15:44:17.923Z,4.77
2023-01-26T15:46:46.240Z,4.78
2023-01-26T15:49:15.483Z,4.74
2023-01-26T15:51:42.636Z,4.70
2023-01-26T15:54:11.783Z,4.68
2023-01-26T15:56:38.963Z,4.67
2023-01-26T15:59:06.531Z,4.62
2023-01-26T16:01:34.967Z,4.61
2023-01-26T16:04:01.844Z,4.61
2023-01-26T16:06:32.907Z,4.66
2023-01-26T16:09:00.054Z,4.60
2023-01-26T16:11:30.109Z,4.57
2023-01-26T16:14:04.139Z,4.56
2023-01-26T16:16:33.185Z,4.54
2023-01-26T16:19:00.148Z,4.51
2023-01-26T16:21:31.789Z,4.50
2023-01-26T16:23:59.616Z,4.50
2023-01-26T16:26:28.539Z,4.48
2023-01-26T16:28:56.001Z,4.48
2023-01-26T16:31:29.478Z,4.46
2023-01-26T16:33:56.872Z,4.44
2023-01-26T16:36:24.286Z,4.44
2023-01-26T16:38:51.487Z,4.43
2023-01-26T16:41:30.875Z,4.42
2023-01-26T16:44:00.850Z,4.40
2023-01-26T16:46:29.883Z,4.39
2023-01-26T16:48:57.509Z,4.38
2023-01-26T16:51:27.251Z,4.37
2023-01-26T16:53:55.986Z,4.40
2023-01-26T16:56:25.292Z,4.39
2023-01-26T16:58:52.650Z,4.38
2023-01-26T17:01:29.956Z,4.38
2023-01-26T17:03:57.140Z,4.36
2023-01-26T17:06:25.455Z,4.35
2023-01-26T17:08:52.903Z,4.37
2023-01-26T17:11:24.684Z,4.40
2023-01-26T17:13:53.216Z,4.36
2023-01-26T17:16:25.584Z,4.34
2023-01-26T17:18:52.950Z,4.36
2023-01-26T17:21:21.247Z,4.34
2023-01-26T17:23:51.025Z,4.30
2023-01-26T17:26:18.914Z,4.26
2023-01-26T17:28:49.027Z,4.25
2023-01-26T17:31:21.502Z,4.27
2023-01-26T17:33:51.037Z,4.28
2023-01-26T17:36:19.496Z,4.26
2023-01-26T17:38:47.547Z,4.27
2023-01-26T17:41:15.635Z,4.22
2023-01-26T17:43:43.711Z,4.17
2023-01-26T17:46:16.971Z,4.18
2023-01-26T17:48:45.839Z,4.19
2023-01-26T17:51:18.361Z,4.26
2023-01-26T17:53:50.275Z,4.34
2023-01-26T17:56:20.043Z,4.36
2023-01-26T17:58:50.321Z,4.29
2023-01-26T18:01:19.403Z,4.28
2023-01-26T18:03:46.861Z,4.28
2023-01-26T18:06:15.488Z,4.26
2023-01-26T18:08:42.657Z,4.25
2023-01-26T18:11:12.711Z,4.25
2023-01-26T18:13:41.346Z,4.26
2023-01-26T18:16:13.115Z,4.21
2023-01-26T18:18:40.850Z,4.21
2023-01-26T18:21:17.956Z,4.17
2023-01-26T18:23:49.105Z,4.18
2023-01-26T18:26:18.435Z,4.15
2023-01-26T18:28:46.825Z,4.18
2023-01-26T18:31:25.051Z,4.15
2023-01-26T18:33:53.179Z,4.14
2023-01-26T18:36:21.728Z,4.13
2023-01-26T18:38:52.152Z,4.12
2023-01-26T18:41:21.748Z,4.14
2023-01-26T18:43:53.339Z,4.11
2023-01-26T18:46:22.682Z,4.11
2023-01-26T18:48:52.974Z,4.10
2023-01-26T18:51:22.476Z,4.11
2023-01-26T18:53:50.544Z,4.10
2023-01-26T18:56:18.467Z,4.08
2023-01-26T18:58:48.092Z,4.06
2023-01-26T19:01:16.988Z,4.04
2023-01-26T19:03:47.840Z,4.05
2023-01-26T19:06:18.581Z,4.03
2023-01-26T19:08:52.885Z,4.05
2023-01-26T19:11:20.924Z,4.03
2023-01-26T19:13:49.400Z,4.04
2023-01-26T19:16:17.785Z,4.05
2023-01-26T19:18:46.728Z,4.01
2023-01-26T19:21:15.200Z,3.99
2023-01-26T19:23:43.170Z,3.99
2023-01-26T19:26:14.696Z,4.03
2023-01-26T19:28:43.060Z,4.01
2023-01-26T19:31:11.610Z,3.97
2023-01-26T19:33:41.105Z,4.00
2023-01-26T19:36:11.842Z,3.99
2023-01-26T19:38:40.281Z,4.00
2023-01-26T19:41:10.398Z,4.00
2023-01-26T19:43:38.471Z,4.01
2023-01-26T19:46:09.220Z,3.96
2023-01-26T19:48:39.299Z,3.98
2023-01-26T19:51:19.511Z,3.98
2023-01-26T19:53:51.815Z,3.98
2023-01-26T19:56:23.834Z,3.96
2023-01-26T19:58:54.358Z,3.95
2023-01-26T20:01:23.741Z,3.93
2023-01-26T20:03:55.352Z,3.92
2023-01-26T20:06:28.014Z,3.88
2023-01-26T20:08:59.347Z,3.89
2023-01-26T20:11:29.460Z,3.88
2023-01-26T20:14:03.333Z,3.88
2023-01-26T20:16:33.729Z,3.88
2023-01-26T20:19:03.043Z,3.86
2023-01-26T20:21:32.674Z,3.83
2023-01-26T20:24:05.648Z,3.83
2023-01-26T20:26:35.473Z,3.85
2023-01-26T20:29:04.578Z,3.81
2023-01-26T20:31:33.431Z,3.80
2023-01-26T20:34:04.062Z,3.79
2023-01-26T20:36:35.342Z,3.77
2023-01-26T20:39:05.895Z,3.80
2023-01-26T20:41:34.183Z,3.78
2023-01-26T20:44:05.049Z,3.76
2023-01-26T20:46:41.727Z,3.77
2023-01-26T20:49:16.262Z,3.72
2023-01-26T20:51:46.907Z,3.70
2023-01-26T20:54:16.753Z,3.70
2023-01-26T20:56:50.274Z,3.71
2023-01-26T20:59:19.897Z,3.68
2023-01-26T21:01:48.561Z,3.69
2023-01-26T21:04:17.827Z,3.66
2023-01-26T21:06:45.944Z,3.65
2023-01-26T21:09:13.737Z,3.66
2023-01-26T21:11:41.636Z,3.69
2023-01-26T21:14:12.585Z,3.69
2023-01-26T21:16:41.667Z,3.68
2023-01-26T21:19:08.635Z,3.68
2023-01-26T21:21:36.107Z,3.67
2023-01-26T21:24:04.864Z,3.69
2023-01-26T21:26:33.203Z,3.66
2023-01-26T21:29:00.723Z,3.63
2023-01-26T21:31:30.939Z,3.64
2023-01-26T21:34:00.053Z,3.64
2023-01-26T21:36:29.469Z,3.63
2023-01-26T21:38:57.973Z,3.62
2023-01-26T21:41:47.404Z,3.60
2023-01-26T21:44:20.061Z,3.62
2023-01-26T21:46:49.014Z,3.62
2023-01-26T21:49:16.934Z,3.62
2023-01-26T21:52:03.615Z,3.57
2023-01-26T21:54:32.359Z,3.56
2023-01-26T21:57:00.453Z,3.57
2023-01-26T21:59:27.731Z,3.59
2023-01-26T22:01:57.495Z,3.58
2023-01-26T22:04:30.616Z,3.58
2023-01-26T22:06:57.827Z,3.58
2023-01-26T22:09:25.742Z,3.53
2023-01-26T22:11:52.864Z,3.54
2023-01-26T22:14:22.447Z,3.54
2023-01-26T22:16:50.251Z,3.53
2023-01-26T22:19:17.722Z,3.48
2023-01-26T22:21:44.873Z,3.51
2023-01-26T22:24:15.000Z,3.48
2023-01-26T22:26:42.820Z,3.47
2023-01-26T22:29:12.058Z,3.50
2023-01-26T22:31:39.636Z,3.45
2023-01-26T22:34:07.060Z,3.47
2023-01-26T22:36:34.305Z,3.46
2023-01-26T22:39:01.803Z,3.47
2023-01-26T22:41:30.483Z,3.45
2023-01-26T22:44:00.119Z,3.44
2023-01-26T22:46:29.875Z,3.47
2023-01-26T22:48:58.492Z,3.44
2023-01-26T22:51:31.136Z,3.41
2023-01-26T22:53:59.867Z,3.39
2023-01-26T22:56:27.067Z,3.44
2023-01-26T22:59:00.500Z,3.39
2023-01-26T23:01:30.386Z,3.38
2023-01-26T23:03:59.180Z,3.39
2023-01-26T23:06:26.880Z,3.41
2023-01-26T23:08:54.476Z,3.38
2023-01-26T23:11:27.233Z,3.38
2023-01-26T23:13:56.122Z,3.37
2023-01-26T23:16:24.592Z,3.37
2023-01-26T23:18:52.917Z,3.33
2023-01-26T23:21:20.961Z,3.30
2023-01-26T23:23:47.820Z,3.32
2023-01-26T23:26:15.406Z,3.30
2023-01-26T23:28:43.751Z,3.29
2023-01-26T23:31:12.721Z,3.31
2023-01-26T23:33:40.546Z,3.32
2023-01-26T23:36:09.389Z,3.34
2023-01-26T23:38:37.252Z,3.38
2023-01-26T23:41:12.076Z,3.35
2023-01-26T23:43:39.764Z,3.32
2023-01-26T23:46:08.620Z,3.29
2023-01-26T23:48:36.214Z,3.27
2023-01-26T23:51:06.612Z,3.29
2023-01-26T23:53:33.967Z,3.24
2023-01-26T23:56:06.713Z,3.27
2023-01-26T23:58:34.196Z,3.25
